Terminal Aerodrome Forecast
Issued by NWS

Home | Current Version | Previous Version | Text Only | Print | Product List | Glossary On
Versions: 1 2 3 4 5 6 7 8 9 10 11 12 13 14 15 16 17 18
000
FTUS41 KILN 272331 AAB
TAFLUK
TAF AMD
KLUK 272331Z 2800/2824 25004KT P6SM BKN110
     FM280800 VRB03KT 3SM BR VCTS BKN060CB
     FM281300 18006KT P6SM BKN035
     FM281800 23011G18KT P6SM VCTS BKN040CB=

USA.gov is the U.S. government's official web portal to all federal, state and local government web resources and services.